»·PEaware :: SWA788 KLAS-KSFO

SWA788 :: KLAS-KSFO

FLIGHT INFORMATION

Flight Status: Arrived
Operator:
Southwest Airlines
More flights by this operator :: More flights under this callsign
Pilot: Ruben R. (12247)
Aircraft: Unknown
(738)
More flights by this aircraft type
Origin: KLAS McCarran Intl
United States
Destination: KSFO San Francisco Intl
United States
More flights between these airports :: More routes between these airports
Route: SHEAD9 KENNO RUSME DYAMD3
File this flight plan on PilotEdge
Remarks:
Altitude:
(Current/Filed)
36,000ft
Speed:
(Current/Filed)
450kts
Departed: 21-Jun-17 11:33 PM
Arrived: 22-Jun-17 12:44 AM
Distance/Time
Traveled:
180nm/1:11
Distance/Time
To Go:
Arrived

Flight Plot

Page will automatically refresh every two minutes.


Map Options




Map Legend


Flown Route
Filed Route
Departure Airport
Arrival Airport
Navaid (VOR, NDB)
Fix

Horizontal Profiles

Position Reports

Time Latitude Longitude Heading Altitude Ground
Speed
21-Jun-17 23:15 36.079926 -115.147118 57 2098ft 0kts
21-Jun-17 23:16 36.079926 -115.147118 57 2098ft 0kts
21-Jun-17 23:17 36.079926 -115.147118 57 2098ft 0kts
21-Jun-17 23:18 36.079926 -115.147118 57 2098ft 0kts
21-Jun-17 23:19 36.079926 -115.147118 57 2098ft 0kts
21-Jun-17 23:20 36.079926 -115.147118 57 2098ft 0kts
21-Jun-17 23:21 36.079926 -115.147118 57 2098ft 0kts
21-Jun-17 23:22 36.079926 -115.147118 57 2098ft 0kts
21-Jun-17 23:23 36.079847 -115.147302 64 2099ft 0kts
21-Jun-17 23:24 36.079772 -115.147594 154 2100ft 0kts
21-Jun-17 23:25 36.079772 -115.147594 154 2100ft 0kts
21-Jun-17 23:26 36.079772 -115.147594 154 2100ft 0kts
21-Jun-17 23:27 36.079699 -115.147553 156 2100ft 3kts
21-Jun-17 23:28 36.078569 -115.148002 273 2104ft 6kts
21-Jun-17 23:29 36.078622 -115.150632 238 2114ft 14kts
21-Jun-17 23:30 36.081476 -115.154962 335 2124ft 30kts
21-Jun-17 23:31 36.088128 -115.157320 24 2116ft 19kts
21-Jun-17 23:32 36.092258 -115.154953 25 2096ft 16kts
21-Jun-17 23:33 36.096292 -115.152621 23 2082ft 16kts
21-Jun-17 23:34 36.097939 -115.152424 301 2079ft 0kts
21-Jun-17 23:35 36.098194 -115.153780 207 2082ft 11kts
21-Jun-17 23:36 36.087468 -115.159905 204 2127ft 143kts
21-Jun-17 23:37 36.040621 -115.186555 204 4185ft 210kts
21-Jun-17 23:38 36.000162 -115.232466 241 6223ft 248kts
21-Jun-17 23:39 35.963692 -115.308774 225 7019ft 262kts
21-Jun-17 23:40 35.910041 -115.375326 223 8980ft 290kts
21-Jun-17 23:41 35.888681 -115.458631 267 10967ft 323kts
21-Jun-17 23:42 35.889209 -115.569405 269 11022ft 328kts
21-Jun-17 23:43 35.890863 -115.670371 269 11341ft 342kts
21-Jun-17 23:44 35.892801 -115.784721 269 14979ft 342kts
21-Jun-17 23:45 35.894686 -115.903173 269 17924ft 355kts
21-Jun-17 23:46 35.926934 -116.003455 312 20146ft 376kts
21-Jun-17 23:47 36.002817 -116.093781 314 22495ft 388kts
21-Jun-17 23:48 36.081627 -116.184965 314 24594ft 398kts
21-Jun-17 23:49 36.156724 -116.271797 314 26593ft 401kts
21-Jun-17 23:50 36.224029 -116.349793 314 28457ft 393kts
21-Jun-17 23:51 36.302203 -116.440656 314 30226ft 388kts
21-Jun-17 23:52 36.380015 -116.531357 314 31726ft 383kts
21-Jun-17 23:53 36.456658 -116.620950 314 33000ft 379kts
21-Jun-17 23:54 36.524683 -116.700681 313 34012ft 375kts
21-Jun-17 23:55 36.604604 -116.777920 324 34928ft 377kts
21-Jun-17 23:56 36.693004 -116.845752 325 35762ft 376kts
21-Jun-17 23:57 36.783421 -116.914715 325 35877ft 398kts
21-Jun-17 23:58 36.871032 -116.981599 325 35947ft 421kts
21-Jun-17 23:59 36.972799 -117.059501 325 36093ft 446kts
22-Jun-17 00:00 37.077873 -117.140044 324 36082ft 445kts
22-Jun-17 00:01 37.180896 -117.219503 324 36080ft 444kts
22-Jun-17 00:01 37.267699 -117.286635 324 36079ft 444kts
22-Jun-17 00:02 37.363501 -117.380298 316 36076ft 440kts
22-Jun-17 00:04 37.469079 -117.498407 302 36028ft 433kts
22-Jun-17 00:05 37.502124 -117.638203 276 36026ft 422kts
22-Jun-17 00:05 37.513341 -117.755917 274 36017ft 422kts
22-Jun-17 00:06 37.525188 -117.899401 273 36001ft 422kts
22-Jun-17 00:07 37.536817 -118.045326 273 35999ft 422kts
22-Jun-17 00:08 37.548219 -118.190919 273 35999ft 422kts
22-Jun-17 00:09 37.559468 -118.336907 273 35999ft 422kts
22-Jun-17 00:10 37.570531 -118.482847 273 36132ft 422kts
22-Jun-17 00:12 37.581398 -118.628616 273 36250ft 422kts
22-Jun-17 00:13 37.591797 -118.770497 273 36281ft 421kts
22-Jun-17 00:14 37.602200 -118.915567 273 36284ft 426kts
22-Jun-17 00:15 37.612705 -119.063938 274 36284ft 431kts
22-Jun-17 00:16 37.622998 -119.211119 274 36283ft 431kts
22-Jun-17 00:17 37.633179 -119.360165 274 36282ft 431kts
22-Jun-17 00:18 37.643164 -119.509155 274 36281ft 431kts
22-Jun-17 00:19 37.652460 -119.650473 273 36038ft 431kts
22-Jun-17 00:20 37.660413 -119.773556 273 35615ft 434kts
22-Jun-17 00:21 37.669048 -119.909647 273 33155ft 392kts
22-Jun-17 00:22 37.676751 -120.033767 274 31585ft 354kts
22-Jun-17 00:23 37.684480 -120.160011 274 29933ft 367kts
22-Jun-17 00:24 37.692198 -120.288019 275 28270ft 372kts
22-Jun-17 00:25 37.696007 -120.418063 265 26783ft 375kts
22-Jun-17 00:26 37.682183 -120.548790 264 26747ft 381kts
22-Jun-17 00:27 37.670270 -120.651662 263 26738ft 381kts
22-Jun-17 00:28 37.658309 -120.752787 263 25550ft 391kts
22-Jun-17 00:29 37.642945 -120.880386 263 23788ft 375kts
22-Jun-17 00:30 37.626815 -121.008983 263 22097ft 379kts
22-Jun-17 00:31 37.610175 -121.138162 259 20415ft 380kts
22-Jun-17 00:32 37.592343 -121.267436 258 18626ft 373kts
22-Jun-17 00:33 37.577273 -121.396686 260 15683ft 381kts
22-Jun-17 00:34 37.562651 -121.522707 261 13293ft 368kts
22-Jun-17 00:35 37.545628 -121.644256 254 11298ft 349kts
22-Jun-17 00:36 37.525678 -121.729251 253 8940ft 321kts
22-Jun-17 00:37 37.503286 -121.823177 254 7986ft 265kts
22-Jun-17 00:38 37.496699 -121.911123 281 6347ft 279kts
22-Jun-17 00:39 37.509969 -122.000273 281 4052ft 257kts
22-Jun-17 00:40 37.521340 -122.075835 281 3034ft 228kts
22-Jun-17 00:41 37.530912 -122.139235 281 1926ft 194kts
22-Jun-17 00:42 37.545614 -122.195079 298 1865ft 148kts
22-Jun-17 00:43 37.564611 -122.240650 298 1752ft 148kts
22-Jun-17 00:44 37.583217 -122.285839 299 1338ft 146kts
22-Jun-17 00:45 37.601855 -122.329349 296 468ft 142kts
22-Jun-17 00:46 37.619489 -122.371423 297 20ft 127kts
22-Jun-17 00:47 37.620838 -122.383370 202 20ft 12kts
22-Jun-17 00:48 37.619505 -122.384168 218 20ft 0kts
22-Jun-17 00:49 37.600872 -122.326954 296 518ft 142kts
22-Jun-17 00:50 37.618830 -122.369851 297 20ft 137kts
22-Jun-17 00:51 37.608541 -122.345319 297 188ft 139kts
22-Jun-17 00:52 37.614777 -122.360162 297 57ft 139kts
22-Jun-17 00:53 37.582421 -122.284010 298 1369ft 146kts
22-Jun-17 00:54 37.609165 -122.346775 297 173ft 139kts
22-Jun-17 00:55 37.623400 -122.381239 269 20ft 38kts
22-Jun-17 00:56 37.619882 -122.383834 209 20ft 18kts
22-Jun-17 00:57 37.619882 -122.383834 209 20ft 18kts
22-Jun-17 00:58 37.619882 -122.383834 209 20ft 18kts
22-Jun-17 00:59 34.849528 -111.791387 224 4778ft 0kts
22-Jun-17 01:00 34.849528 -111.791387 224 4778ft 0kts
22-Jun-17 01:01 34.849528 -111.791387 224 4778ft 0kts

Navigation Log

Ident Type
Flight plan parsing failed, navigation log unavailable